sensor_id;sensor_type;location;lat;lon;timestamp;temperature;humidity
12287;DHT22;6206;53.100;11.098;2022-10-31T00:01:30;12.10;99.90
12287;DHT22;6206;53.100;11.098;2022-10-31T00:03:58;11.90;99.90
12287;DHT22;6206;53.100;11.098;2022-10-31T00:06:25;12.10;99.90
12287;DHT22;6206;53.100;11.098;2022-10-31T00:08:53;13.10;99.90
12287;DHT22;6206;53.100;11.098;2022-10-31T00:11:22;13.40;99.90
12287;DHT22;6206;53.100;11.098;2022-10-31T00:13:48;11.70;99.90
12287;DHT22;6206;53.100;11.098;2022-10-31T00:16:16;11.70;99.90
12287;DHT22;6206;53.100;11.098;2022-10-31T00:18:43;11.80;99.90
12287;DHT22;6206;53.100;11.098;2022-10-31T00:21:10;12.70;99.90
12287;DHT22;6206;53.100;11.098;2022-10-31T00:23:37;12.20;99.90
12287;DHT22;6206;53.100;11.098;2022-10-31T00:26:04;11.80;99.90
12287;DHT22;6206;53.100;11.098;2022-10-31T00:28:33;11.90;99.90
12287;DHT22;6206;53.100;11.098;2022-10-31T00:31:00;11.80;99.90
12287;DHT22;6206;53.100;11.098;2022-10-31T00:33:27;11.80;99.90
12287;DHT22;6206;53.100;11.098;2022-10-31T00:35:55;11.80;99.90
12287;DHT22;6206;53.100;11.098;2022-10-31T00:38:22;11.90;99.90
12287;DHT22;6206;53.100;11.098;2022-10-31T00:40:49;12.00;99.90
12287;DHT22;6206;53.100;11.098;2022-10-31T00:43:16;11.90;99.90
12287;DHT22;6206;53.100;11.098;2022-10-31T00:45:44;12.00;99.90
12287;DHT22;6206;53.100;11.098;2022-10-31T00:48:11;11.70;99.90
12287;DHT22;6206;53.100;11.098;2022-10-31T00:50:38;12.20;99.90
12287;DHT22;6206;53.100;11.098;2022-10-31T00:53:05;12.20;99.90
12287;DHT22;6206;53.100;11.098;2022-10-31T00:55:32;14.10;99.90
12287;DHT22;6206;53.100;11.098;2022-10-31T00:57:59;14.00;99.90
12287;DHT22;6206;53.100;11.098;2022-10-31T01:00:26;12.10;99.90
12287;DHT22;6206;53.100;11.098;2022-10-31T01:02:55;11.90;99.90
12287;DHT22;6206;53.100;11.098;2022-10-31T01:05:21;13.10;99.90
12287;DHT22;6206;53.100;11.098;2022-10-31T01:07:48;12.20;99.90
12287;DHT22;6206;53.100;11.098;2022-10-31T01:10:15;13.60;99.90
12287;DHT22;6206;53.100;11.098;2022-10-31T01:12:45;12.40;99.90
12287;DHT22;6206;53.100;11.098;2022-10-31T01:15:13;11.90;99.90
12287;DHT22;6206;53.100;11.098;2022-10-31T01:17:40;12.10;99.90
12287;DHT22;6206;53.100;11.098;2022-10-31T01:20:09;12.00;99.90
12287;DHT22;6206;53.100;11.098;2022-10-31T01:22:36;12.20;99.90
12287;DHT22;6206;53.100;11.098;2022-10-31T01:25:04;13.20;99.90
12287;DHT22;6206;53.100;11.098;2022-10-31T01:27:31;12.20;99.90
12287;DHT22;6206;53.100;11.098;2022-10-31T01:29:58;13.10;99.90
12287;DHT22;6206;53.100;11.098;2022-10-31T01:32:25;13.50;99.90
12287;DHT22;6206;53.100;11.098;2022-10-31T01:34:54;12.00;99.90
12287;DHT22;6206;53.100;11.098;2022-10-31T01:37:22;11.70;99.90
12287;DHT22;6206;53.100;11.098;2022-10-31T01:39:49;11.60;99.90
12287;DHT22;6206;53.100;11.098;2022-10-31T01:42:19;11.50;99.90
12287;DHT22;6206;53.100;11.098;2022-10-31T01:44:55;11.40;99.90
12287;DHT22;6206;53.100;11.098;2022-10-31T01:47:40;11.30;99.90
12287;DHT22;6206;53.100;11.098;2022-10-31T01:50:13;11.20;99.90
12287;DHT22;6206;53.100;11.098;2022-10-31T01:52:45;11.10;99.90
12287;DHT22;6206;53.100;11.098;2022-10-31T01:55:16;11.00;99.90
12287;DHT22;6206;53.100;11.098;2022-10-31T01:57:46;11.00;99.90
12287;DHT22;6206;53.100;11.098;2022-10-31T02:00:14;10.40;99.90
12287;DHT22;6206;53.100;11.098;2022-10-31T02:02:42;11.30;99.90
12287;DHT22;6206;53.100;11.098;2022-10-31T02:05:12;12.00;99.90
12287;DHT22;6206;53.100;11.098;2022-10-31T02:07:45;14.80;99.90
12287;DHT22;6206;53.100;11.098;2022-10-31T02:10:15;11.20;99.90
12287;DHT22;6206;53.100;11.098;2022-10-31T02:12:43;11.50;99.90
12287;DHT22;6206;53.100;11.098;2022-10-31T02:15:10;11.40;99.90
12287;DHT22;6206;53.100;11.098;2022-10-31T02:17:37;11.50;99.90
12287;DHT22;6206;53.100;11.098;2022-10-31T02:20:12;11.50;99.90
12287;DHT22;6206;53.100;11.098;2022-10-31T02:22:57;11.40;99.90
12287;DHT22;6206;53.100;11.098;2022-10-31T02:25:49;10.70;99.90
12287;DHT22;6206;53.100;11.098;2022-10-31T02:28:37;11.40;99.90
12287;DHT22;6206;53.100;11.098;2022-10-31T02:31:19;11.50;99.90
12287;DHT22;6206;53.100;11.098;2022-10-31T02:33:52;11.50;99.90
12287;DHT22;6206;53.100;11.098;2022-10-31T02:36:24;11.40;99.90
12287;DHT22;6206;53.100;11.098;2022-10-31T02:39:00;11.30;99.90
12287;DHT22;6206;53.100;11.098;2022-10-31T02:41:33;11.80;99.90
12287;DHT22;6206;53.100;11.098;2022-10-31T02:44:07;11.20;99.90
12287;DHT22;6206;53.100;11.098;2022-10-31T02:46:42;10.80;99.90
12287;DHT22;6206;53.100;11.098;2022-10-31T02:49:16;11.70;99.90
12287;DHT22;6206;53.100;11.098;2022-10-31T02:51:45;10.80;99.90
12287;DHT22;6206;53.100;11.098;2022-10-31T02:54:23;10.60;99.90
12287;DHT22;6206;53.100;11.098;2022-10-31T02:56:54;10.80;99.90
12287;DHT22;6206;53.100;11.098;2022-10-31T02:59:22;10.90;99.90
12287;DHT22;6206;53.100;11.098;2022-10-31T03:02:09;12.00;99.90
12287;DHT22;6206;53.100;11.098;2022-10-31T03:05:04;12.30;99.90
12287;DHT22;6206;53.100;11.098;2022-10-31T03:07:41;12.40;99.90
12287;DHT22;6206;53.100;11.098;2022-10-31T03:10:16;12.40;99.90
12287;DHT22;6206;53.100;11.098;2022-10-31T03:12:49;12.10;99.90
12287;DHT22;6206;53.100;11.098;2022-10-31T03:15:21;12.00;99.90
12287;DHT22;6206;53.100;11.098;2022-10-31T03:17:56;11.90;99.90
12287;DHT22;6206;53.100;11.098;2022-10-31T03:20:30;12.00;99.90
12287;DHT22;6206;53.100;11.098;2022-10-31T03:22:59;11.90;99.90
12287;DHT22;6206;53.100;11.098;2022-10-31T03:25:27;11.90;99.90
12287;DHT22;6206;53.100;11.098;2022-10-31T03:27:56;14.70;99.90
12287;DHT22;6206;53.100;11.098;2022-10-31T03:30:25;11.90;99.90
12287;DHT22;6206;53.100;11.098;2022-10-31T03:32:55;15.20;99.90
12287;DHT22;6206;53.100;11.098;2022-10-31T03:35:23;12.40;99.90
12287;DHT22;6206;53.100;11.098;2022-10-31T03:37:53;12.90;99.90
12287;DHT22;6206;53.100;11.098;2022-10-31T03:40:21;12.00;99.90
12287;DHT22;6206;53.100;11.098;2022-10-31T03:42:54;11.60;99.90
12287;DHT22;6206;53.100;11.098;2022-10-31T03:45:24;12.00;99.90
12287;DHT22;6206;53.100;11.098;2022-10-31T03:47:53;12.00;99.90
12287;DHT22;6206;53.100;11.098;2022-10-31T03:50:21;12.70;99.90
12287;DHT22;6206;53.100;11.098;2022-10-31T03:52:55;11.80;99.90
12287;DHT22;6206;53.100;11.098;2022-10-31T03:55:26;12.80;99.90
12287;DHT22;6206;53.100;11.098;2022-10-31T03:57:57;12.30;99.90
12287;DHT22;6206;53.100;11.098;2022-10-31T04:00:25;12.40;99.90
12287;DHT22;6206;53.100;11.098;2022-10-31T04:02:58;12.70;99.90
12287;DHT22;6206;53.100;11.098;2022-10-31T04:05:27;12.60;99.90
12287;DHT22;6206;53.100;11.098;2022-10-31T04:07:55;12.60;99.90
12287;DHT22;6206;53.100;11.098;2022-10-31T04:10:24;12.30;99.90
12287;DHT22;6206;53.100;11.098;2022-10-31T04:12:56;12.80;99.90
12287;DHT22;6206;53.100;11.098;2022-10-31T04:15:25;12.70;99.90
12287;DHT22;6206;53.100;11.098;2022-10-31T04:17:57;12.70;99.90
12287;DHT22;6206;53.100;11.098;2022-10-31T04:20:31;13.00;99.90
12287;DHT22;6206;53.100;11.098;2022-10-31T04:22:58;13.10;99.90
12287;DHT22;6206;53.100;11.098;2022-10-31T04:25:26;13.30;99.90
12287;DHT22;6206;53.100;11.098;2022-10-31T04:27:53;12.80;99.90
12287;DHT22;6206;53.100;11.098;2022-10-31T04:30:20;12.30;99.90
12287;DHT22;6206;53.100;11.098;2022-10-31T04:32:48;12.70;99.90
12287;DHT22;6206;53.100;11.098;2022-10-31T04:35:16;11.90;99.90
12287;DHT22;6206;53.100;11.098;2022-10-31T04:37:42;11.70;99.90
12287;DHT22;6206;53.100;11.098;2022-10-31T04:40:11;12.10;99.90
12287;DHT22;6206;53.100;11.098;2022-10-31T04:42:38;12.10;99.90
12287;DHT22;6206;53.100;11.098;2022-10-31T04:45:05;12.60;99.90
12287;DHT22;6206;53.100;11.098;2022-10-31T04:47:32;12.40;99.90
12287;DHT22;6206;53.100;11.098;2022-10-31T04:49:59;12.50;99.90
12287;DHT22;6206;53.100;11.098;2022-10-31T04:52:28;12.50;99.90
12287;DHT22;6206;53.100;11.098;2022-10-31T04:54:54;12.40;99.90
12287;DHT22;6206;53.100;11.098;2022-10-31T04:57:21;12.10;99.90
12287;DHT22;6206;53.100;11.098;2022-10-31T04:59:48;12.50;99.90
12287;DHT22;6206;53.100;11.098;2022-10-31T05:02:15;12.00;99.90
12287;DHT22;6206;53.100;11.098;2022-10-31T05:04:42;11.90;99.90
12287;DHT22;6206;53.100;11.098;2022-10-31T05:07:08;12.30;99.90
12287;DHT22;6206;53.100;11.098;2022-10-31T05:09:36;11.70;99.90
12287;DHT22;6206;53.100;11.098;2022-10-31T05:12:03;11.70;99.90
12287;DHT22;6206;53.100;11.098;2022-10-31T05:14:30;11.90;99.90
12287;DHT22;6206;53.100;11.098;2022-10-31T05:16:57;11.60;99.90
12287;DHT22;6206;53.100;11.098;2022-10-31T05:19:24;11.60;99.90
12287;DHT22;6206;53.100;11.098;2022-10-31T05:21:50;11.70;99.90
12287;DHT22;6206;53.100;11.098;2022-10-31T05:24:17;11.80;99.90
12287;DHT22;6206;53.100;11.098;2022-10-31T05:26:48;12.90;99.90
12287;DHT22;6206;53.100;11.098;2022-10-31T05:29:15;11.80;99.90
12287;DHT22;6206;53.100;11.098;2022-10-31T05:31:42;11.60;99.90
12287;DHT22;6206;53.100;11.098;2022-10-31T05:34:09;11.40;99.90
12287;DHT22;6206;53.100;11.098;2022-10-31T05:36:36;11.40;99.90
12287;DHT22;6206;53.100;11.098;2022-10-31T05:39:02;11.80;99.90
12287;DHT22;6206;53.100;11.098;2022-10-31T05:41:29;11.30;99.90
12287;DHT22;6206;53.100;11.098;2022-10-31T05:43:57;12.40;99.90
12287;DHT22;6206;53.100;11.098;2022-10-31T05:46:24;11.40;99.90
12287;DHT22;6206;53.100;11.098;2022-10-31T05:48:51;11.40;99.90
12287;DHT22;6206;53.100;11.098;2022-10-31T05:51:17;11.40;99.90
12287;DHT22;6206;53.100;11.098;2022-10-31T05:53:46;11.50;99.90
12287;DHT22;6206;53.100;11.098;2022-10-31T05:56:13;11.80;99.90
12287;DHT22;6206;53.100;11.098;2022-10-31T05:58:40;15.40;99.90
12287;DHT22;6206;53.100;11.098;2022-10-31T06:01:08;12.10;99.90
12287;DHT22;6206;53.100;11.098;2022-10-31T06:03:35;12.10;99.90
12287;DHT22;6206;53.100;11.098;2022-10-31T06:06:01;12.10;99.90
12287;DHT22;6206;53.100;11.098;2022-10-31T06:08:28;12.10;99.90
12287;DHT22;6206;53.100;11.098;2022-10-31T06:10:55;12.20;99.90
12287;DHT22;6206;53.100;11.098;2022-10-31T06:13:22;13.00;99.90
12287;DHT22;6206;53.100;11.098;2022-10-31T06:15:48;12.00;99.90
12287;DHT22;6206;53.100;11.098;2022-10-31T06:18:16;11.80;99.90
12287;DHT22;6206;53.100;11.098;2022-10-31T06:20:43;11.70;99.90
12287;DHT22;6206;53.100;11.098;2022-10-31T06:23:10;11.80;99.90
12287;DHT22;6206;53.100;11.098;2022-10-31T06:25:37;11.80;99.90
12287;DHT22;6206;53.100;11.098;2022-10-31T06:28:04;11.90;99.90
12287;DHT22;6206;53.100;11.098;2022-10-31T06:30:31;11.70;99.90
12287;DHT22;6206;53.100;11.098;2022-10-31T06:33:02;11.70;99.90
12287;DHT22;6206;53.100;11.098;2022-10-31T06:35:31;11.40;99.90
12287;DHT22;6206;53.100;11.098;2022-10-31T06:37:57;11.60;99.90
12287;DHT22;6206;53.100;11.098;2022-10-31T06:40:24;11.60;99.90
12287;DHT22;6206;53.100;11.098;2022-10-31T06:42:58;12.00;99.90
12287;DHT22;6206;53.100;11.098;2022-10-31T06:45:25;12.20;99.90
12287;DHT22;6206;53.100;11.098;2022-10-31T06:47:52;11.60;99.90
12287;DHT22;6206;53.100;11.098;2022-10-31T06:50:19;12.60;99.90
12287;DHT22;6206;53.100;11.098;2022-10-31T06:52:51;12.70;99.90
12287;DHT22;6206;53.100;11.098;2022-10-31T06:55:18;12.60;99.90
12287;DHT22;6206;53.100;11.098;2022-10-31T06:57:51;14.60;99.90
12287;DHT22;6206;53.100;11.098;2022-10-31T07:00:18;12.40;99.90
12287;DHT22;6206;53.100;11.098;2022-10-31T07:02:53;12.40;99.90
12287;DHT22;6206;53.100;11.098;2022-10-31T07:05:19;14.30;99.90
12287;DHT22;6206;53.100;11.098;2022-10-31T07:07:46;12.60;99.90
12287;DHT22;6206;53.100;11.098;2022-10-31T07:10:14;12.60;99.90
12287;DHT22;6206;53.100;11.098;2022-10-31T07:12:41;12.60;99.90
12287;DHT22;6206;53.100;11.098;2022-10-31T07:15:08;12.70;99.90
12287;DHT22;6206;53.100;11.098;2022-10-31T07:17:35;12.80;99.90
12287;DHT22;6206;53.100;11.098;2022-10-31T07:20:03;12.90;99.90
12287;DHT22;6206;53.100;11.098;2022-10-31T07:22:33;13.10;99.90
12287;DHT22;6206;53.100;11.098;2022-10-31T07:25:00;13.30;99.90
12287;DHT22;6206;53.100;11.098;2022-10-31T07:27:28;13.40;99.90
12287;DHT22;6206;53.100;11.098;2022-10-31T07:29:55;12.20;99.90
12287;DHT22;6206;53.100;11.098;2022-10-31T07:32:22;13.50;99.90
12287;DHT22;6206;53.100;11.098;2022-10-31T07:34:49;13.30;99.90
12287;DHT22;6206;53.100;11.098;2022-10-31T07:37:15;13.40;99.90
12287;DHT22;6206;53.100;11.098;2022-10-31T07:39:42;13.50;99.90
12287;DHT22;6206;53.100;11.098;2022-10-31T07:42:09;13.50;99.90
12287;DHT22;6206;53.100;11.098;2022-10-31T07:44:37;13.50;99.90
12287;DHT22;6206;53.100;11.098;2022-10-31T07:47:04;13.60;99.90
12287;DHT22;6206;53.100;11.098;2022-10-31T07:49:30;13.70;99.90
12287;DHT22;6206;53.100;11.098;2022-10-31T07:51:57;15.70;99.90
12287;DHT22;6206;53.100;11.098;2022-10-31T07:54:24;13.90;99.90
12287;DHT22;6206;53.100;11.098;2022-10-31T07:56:51;14.10;99.90
12287;DHT22;6206;53.100;11.098;2022-10-31T07:59:18;14.20;99.90
12287;DHT22;6206;53.100;11.098;2022-10-31T08:01:46;14.20;99.90
12287;DHT22;6206;53.100;11.098;2022-10-31T08:04:12;15.00;99.90
12287;DHT22;6206;53.100;11.098;2022-10-31T08:06:39;14.30;99.90
12287;DHT22;6206;53.100;11.098;2022-10-31T08:09:06;14.20;99.90
12287;DHT22;6206;53.100;11.098;2022-10-31T08:11:33;14.10;99.90
12287;DHT22;6206;53.100;11.098;2022-10-31T08:13:59;14.10;99.90
12287;DHT22;6206;53.100;11.098;2022-10-31T08:16:26;15.30;99.90
12287;DHT22;6206;53.100;11.098;2022-10-31T08:18:55;14.30;99.90
12287;DHT22;6206;53.100;11.098;2022-10-31T08:21:22;14.40;99.90
12287;DHT22;6206;53.100;11.098;2022-10-31T08:23:48;14.30;99.90
12287;DHT22;6206;53.100;11.098;2022-10-31T08:26:15;14.10;99.90
12287;DHT22;6206;53.100;11.098;2022-10-31T08:28:42;14.10;99.90
12287;DHT22;6206;53.100;11.098;2022-10-31T08:31:09;14.20;99.90
12287;DHT22;6206;53.100;11.098;2022-10-31T08:33:36;14.80;99.90
12287;DHT22;6206;53.100;11.098;2022-10-31T08:36:04;14.80;99.90
12287;DHT22;6206;53.100;11.098;2022-10-31T08:38:31;14.30;99.90
12287;DHT22;6206;53.100;11.098;2022-10-31T08:40:58;14.50;99.90
12287;DHT22;6206;53.100;11.098;2022-10-31T08:43:25;14.60;99.90
12287;DHT22;6206;53.100;11.098;2022-10-31T08:45:51;14.60;99.90
12287;DHT22;6206;53.100;11.098;2022-10-31T08:48:20;14.70;99.90
12287;DHT22;6206;53.100;11.098;2022-10-31T08:50:47;14.40;99.90
12287;DHT22;6206;53.100;11.098;2022-10-31T08:53:16;14.50;99.90
12287;DHT22;6206;53.100;11.098;2022-10-31T08:55:45;14.60;99.90
12287;DHT22;6206;53.100;11.098;2022-10-31T08:58:13;15.20;99.90
12287;DHT22;6206;53.100;11.098;2022-10-31T09:00:40;14.90;99.90
12287;DHT22;6206;53.100;11.098;2022-10-31T09:03:10;15.30;99.90
12287;DHT22;6206;53.100;11.098;2022-10-31T09:05:38;14.90;99.90
12287;DHT22;6206;53.100;11.098;2022-10-31T09:08:05;16.10;99.90
12287;DHT22;6206;53.100;11.098;2022-10-31T09:10:35;15.00;99.90
12287;DHT22;6206;53.100;11.098;2022-10-31T09:13:04;15.20;99.90
12287;DHT22;6206;53.100;11.098;2022-10-31T09:15:32;15.10;99.90
12287;DHT22;6206;53.100;11.098;2022-10-31T09:17:59;15.40;99.90
12287;DHT22;6206;53.100;11.098;2022-10-31T09:20:27;15.20;99.90
12287;DHT22;6206;53.100;11.098;2022-10-31T09:22:58;15.40;99.90
12287;DHT22;6206;53.100;11.098;2022-10-31T09:25:25;16.60;99.90
12287;DHT22;6206;53.100;11.098;2022-10-31T09:27:56;14.10;99.90
12287;DHT22;6206;53.100;11.098;2022-10-31T09:30:24;15.50;99.90
12287;DHT22;6206;53.100;11.098;2022-10-31T09:32:54;15.30;99.90
12287;DHT22;6206;53.100;11.098;2022-10-31T09:35:21;15.20;99.90
12287;DHT22;6206;53.100;11.098;2022-10-31T09:37:53;15.10;99.90
12287;DHT22;6206;53.100;11.098;2022-10-31T09:40:20;15.30;99.90
12287;DHT22;6206;53.100;11.098;2022-10-31T09:42:58;15.20;99.90
12287;DHT22;6206;53.100;11.098;2022-10-31T09:45:32;15.30;99.90
12287;DHT22;6206;53.100;11.098;2022-10-31T09:48:14;15.40;99.90
12287;DHT22;6206;53.100;11.098;2022-10-31T09:50:46;15.30;99.90
12287;DHT22;6206;53.100;11.098;2022-10-31T09:53:23;15.20;99.90
12287;DHT22;6206;53.100;11.098;2022-10-31T09:55:52;15.10;99.90
12287;DHT22;6206;53.100;11.098;2022-10-31T09:58:24;14.80;99.90
12287;DHT22;6206;53.100;11.098;2022-10-31T10:00:52;15.70;99.90
12287;DHT22;6206;53.100;11.098;2022-10-31T10:03:27;14.70;99.90
12287;DHT22;6206;53.100;11.098;2022-10-31T10:05:59;14.60;99.90
12287;DHT22;6206;53.100;11.098;2022-10-31T10:08:31;15.30;99.90
12287;DHT22;6206;53.100;11.098;2022-10-31T10:11:07;15.60;99.90
12287;DHT22;6206;53.100;11.098;2022-10-31T10:13:51;14.60;99.90
12287;DHT22;6206;53.100;11.098;2022-10-31T10:16:35;14.60;99.90
12287;DHT22;6206;53.100;11.098;2022-10-31T10:19:24;14.90;99.90
12287;DHT22;6206;53.100;11.098;2022-10-31T10:22:00;14.90;99.90
12287;DHT22;6206;53.100;11.098;2022-10-31T10:24:39;14.90;99.90
12287;DHT22;6206;53.100;11.098;2022-10-31T10:27:19;14.90;99.90
12287;DHT22;6206;53.100;11.098;2022-10-31T10:29:56;14.80;99.90
12287;DHT22;6206;53.100;11.098;2022-10-31T10:32:27;15.20;99.90
12287;DHT22;6206;53.100;11.098;2022-10-31T10:34:57;15.10;99.90
12287;DHT22;6206;53.100;11.098;2022-10-31T10:37:29;15.30;99.90
12287;DHT22;6206;53.100;11.098;2022-10-31T10:40:02;15.40;99.90
12287;DHT22;6206;53.100;11.098;2022-10-31T10:42:33;15.80;99.90
12287;DHT22;6206;53.100;11.098;2022-10-31T10:45:20;15.00;99.90
12287;DHT22;6206;53.100;11.098;2022-10-31T10:48:10;15.40;99.90
12287;DHT22;6206;53.100;11.098;2022-10-31T10:50:44;16.90;99.90
12287;DHT22;6206;53.100;11.098;2022-10-31T10:53:25;15.90;99.90
12287;DHT22;6206;53.100;11.098;2022-10-31T10:56:10;16.20;99.90
12287;DHT22;6206;53.100;11.098;2022-10-31T10:58:38;16.50;99.90
12287;DHT22;6206;53.100;11.098;2022-10-31T11:01:11;16.50;99.90
12287;DHT22;6206;53.100;11.098;2022-10-31T11:03:39;16.00;99.90
12287;DHT22;6206;53.100;11.098;2022-10-31T11:06:17;16.50;99.90
12287;DHT22;6206;53.100;11.098;2022-10-31T11:08:47;15.40;99.90
12287;DHT22;6206;53.100;11.098;2022-10-31T11:11:23;15.30;99.90
12287;DHT22;6206;53.100;11.098;2022-10-31T11:13:57;15.20;99.90
12287;DHT22;6206;53.100;11.098;2022-10-31T11:16:32;15.50;99.90
12287;DHT22;6206;53.100;11.098;2022-10-31T11:19:08;15.00;99.90
12287;DHT22;6206;53.100;11.098;2022-10-31T11:21:36;15.10;99.90
12287;DHT22;6206;53.100;11.098;2022-10-31T11:24:03;14.30;99.90
12287;DHT22;6206;53.100;11.098;2022-10-31T11:26:30;15.90;99.90
12287;DHT22;6206;53.100;11.098;2022-10-31T11:29:00;15.10;99.90
12287;DHT22;6206;53.100;11.098;2022-10-31T11:31:30;15.00;99.90
12287;DHT22;6206;53.100;11.098;2022-10-31T11:33:59;16.90;99.90
12287;DHT22;6206;53.100;11.098;2022-10-31T11:36:29;16.20;99.90
12287;DHT22;6206;53.100;11.098;2022-10-31T11:38:57;15.60;99.90
12287;DHT22;6206;53.100;11.098;2022-10-31T11:41:27;14.90;99.90
12287;DHT22;6206;53.100;11.098;2022-10-31T11:43:56;15.10;99.90
12287;DHT22;6206;53.100;11.098;2022-10-31T11:46:27;16.50;99.90
12287;DHT22;6206;53.100;11.098;2022-10-31T11:48:56;15.20;99.90
12287;DHT22;6206;53.100;11.098;2022-10-31T11:51:27;15.60;99.90
12287;DHT22;6206;53.100;11.098;2022-10-31T11:53:58;15.60;99.90
12287;DHT22;6206;53.100;11.098;2022-10-31T11:56:25;16.30;99.90
12287;DHT22;6206;53.100;11.098;2022-10-31T11:58:56;15.00;99.90
12287;DHT22;6206;53.100;11.098;2022-10-31T12:01:25;14.10;99.90
12287;DHT22;6206;53.100;11.098;2022-10-31T12:03:59;15.00;99.90
12287;DHT22;6206;53.100;11.098;2022-10-31T12:06:31;15.10;99.90
12287;DHT22;6206;53.100;11.098;2022-10-31T12:08:59;15.00;99.90
12287;DHT22;6206;53.100;11.098;2022-10-31T12:11:43;14.60;99.90
12287;DHT22;6206;53.100;11.098;2022-10-31T12:14:25;14.80;99.90
12287;DHT22;6206;53.100;11.098;2022-10-31T12:16:59;15.00;99.90
12287;DHT22;6206;53.100;11.098;2022-10-31T12:19:36;15.00;99.90
12287;DHT22;6206;53.100;11.098;2022-10-31T12:22:11;15.60;99.90
12287;DHT22;6206;53.100;11.098;2022-10-31T12:24:57;15.80;99.90
12287;DHT22;6206;53.100;11.098;2022-10-31T12:27:48;14.30;99.90
12287;DHT22;6206;53.100;11.098;2022-10-31T12:30:20;14.50;99.90
12287;DHT22;6206;53.100;11.098;2022-10-31T12:33:07;15.00;99.90
12287;DHT22;6206;53.100;11.098;2022-10-31T12:35:51;14.30;99.90
12287;DHT22;6206;53.100;11.098;2022-10-31T12:38:31;14.90;99.90
12287;DHT22;6206;53.100;11.098;2022-10-31T12:41:09;16.80;99.90
12287;DHT22;6206;53.100;11.098;2022-10-31T12:43:45;14.90;99.90
12287;DHT22;6206;53.100;11.098;2022-10-31T12:46:22;15.40;99.90
12287;DHT22;6206;53.100;11.098;2022-10-31T12:49:11;14.50;99.90
12287;DHT22;6206;53.100;11.098;2022-10-31T12:51:49;15.30;99.90
12287;DHT22;6206;53.100;11.098;2022-10-31T12:54:33;15.30;99.90
12287;DHT22;6206;53.100;11.098;2022-10-31T12:57:12;15.40;99.90
12287;DHT22;6206;53.100;11.098;2022-10-31T12:59:43;15.40;99.90
12287;DHT22;6206;53.100;11.098;2022-10-31T13:02:16;15.90;99.90
12287;DHT22;6206;53.100;11.098;2022-10-31T13:04:48;15.20;99.90
12287;DHT22;6206;53.100;11.098;2022-10-31T13:07:20;15.90;99.90
12287;DHT22;6206;53.100;11.098;2022-10-31T13:09:53;17.20;99.90
12287;DHT22;6206;53.100;11.098;2022-10-31T13:12:22;15.90;99.90
12287;DHT22;6206;53.100;11.098;2022-10-31T13:14:51;16.10;99.90
12287;DHT22;6206;53.100;11.098;2022-10-31T13:17:25;16.40;99.90
12287;DHT22;6206;53.100;11.098;2022-10-31T13:19:55;17.00;99.90
12287;DHT22;6206;53.100;11.098;2022-10-31T13:22:30;15.40;99.90
12287;DHT22;6206;53.100;11.098;2022-10-31T13:25:09;15.80;99.90
12287;DHT22;6206;53.100;11.098;2022-10-31T13:27:45;16.00;99.90
12287;DHT22;6206;53.100;11.098;2022-10-31T13:30:15;15.80;99.90
12287;DHT22;6206;53.100;11.098;2022-10-31T13:32:49;15.40;99.90
12287;DHT22;6206;53.100;11.098;2022-10-31T13:35:22;15.40;99.90
12287;DHT22;6206;53.100;11.098;2022-10-31T13:38:01;15.50;99.90
12287;DHT22;6206;53.100;11.098;2022-10-31T13:40:36;15.70;99.90
12287;DHT22;6206;53.100;11.098;2022-10-31T13:43:11;15.90;99.90
12287;DHT22;6206;53.100;11.098;2022-10-31T13:45:48;17.00;99.90
12287;DHT22;6206;53.100;11.098;2022-10-31T13:48:34;15.40;99.90
12287;DHT22;6206;53.100;11.098;2022-10-31T13:51:03;15.70;99.90
12287;DHT22;6206;53.100;11.098;2022-10-31T13:56:22;15.70;99.90
12287;DHT22;6206;53.100;11.098;2022-10-31T13:58:59;15.70;99.90
12287;DHT22;6206;53.100;11.098;2022-10-31T14:01:27;14.80;99.90
12287;DHT22;6206;53.100;11.098;2022-10-31T14:04:04;15.20;99.90
12287;DHT22;6206;53.100;11.098;2022-10-31T14:06:37;15.00;99.90
12287;DHT22;6206;53.100;11.098;2022-10-31T14:09:20;15.70;99.90
12287;DHT22;6206;53.100;11.098;2022-10-31T14:11:49;14.80;99.90
12287;DHT22;6206;53.100;11.098;2022-10-31T14:14:17;15.40;99.90
12287;DHT22;6206;53.100;11.098;2022-10-31T14:16:46;15.00;99.90
12287;DHT22;6206;53.100;11.098;2022-10-31T14:19:20;14.10;99.90
12287;DHT22;6206;53.100;11.098;2022-10-31T14:21:48;14.40;99.90
12287;DHT22;6206;53.100;11.098;2022-10-31T14:24:34;14.20;99.90
12287;DHT22;6206;53.100;11.098;2022-10-31T14:27:03;14.30;99.90
12287;DHT22;6206;53.100;11.098;2022-10-31T14:29:31;14.00;99.90
12287;DHT22;6206;53.100;11.098;2022-10-31T14:32:03;13.90;99.90
12287;DHT22;6206;53.100;11.098;2022-10-31T14:34:38;13.80;99.90
12287;DHT22;6206;53.100;11.098;2022-10-31T14:37:32;13.90;99.90
12287;DHT22;6206;53.100;11.098;2022-10-31T14:40:15;14.40;99.90
12287;DHT22;6206;53.100;11.098;2022-10-31T14:42:56;14.20;99.90
12287;DHT22;6206;53.100;11.098;2022-10-31T14:45:31;15.70;99.90
12287;DHT22;6206;53.100;11.098;2022-10-31T14:48:10;14.00;99.90
12287;DHT22;6206;53.100;11.098;2022-10-31T14:50:47;14.00;99.90
12287;DHT22;6206;53.100;11.098;2022-10-31T14:53:19;14.10;99.90
12287;DHT22;6206;53.100;11.098;2022-10-31T14:55:51;13.60;99.90
12287;DHT22;6206;53.100;11.098;2022-10-31T14:58:21;16.30;99.90
12287;DHT22;6206;53.100;11.098;2022-10-31T15:00:51;13.70;99.90
12287;DHT22;6206;53.100;11.098;2022-10-31T15:03:24;13.50;99.90
12287;DHT22;6206;53.100;11.098;2022-10-31T15:05:55;13.80;99.90
12287;DHT22;6206;53.100;11.098;2022-10-31T15:08:35;13.40;99.90
12287;DHT22;6206;53.100;11.098;2022-10-31T15:11:14;13.80;99.90
12287;DHT22;6206;53.100;11.098;2022-10-31T15:13:42;13.40;99.90
12287;DHT22;6206;53.100;11.098;2022-10-31T15:16:11;15.20;99.90
12287;DHT22;6206;53.100;11.098;2022-10-31T15:18:46;13.50;99.90
12287;DHT22;6206;53.100;11.098;2022-10-31T15:21:15;14.20;99.90
12287;DHT22;6206;53.100;11.098;2022-10-31T15:23:42;13.30;99.90
12287;DHT22;6206;53.100;11.098;2022-10-31T15:26:17;13.40;99.90
12287;DHT22;6206;53.100;11.098;2022-10-31T15:28:44;13.30;99.90
12287;DHT22;6206;53.100;11.098;2022-10-31T15:31:16;13.70;99.90
12287;DHT22;6206;53.100;11.098;2022-10-31T15:33:47;15.00;99.90
12287;DHT22;6206;53.100;11.098;2022-10-31T15:36:19;15.20;99.90
12287;DHT22;6206;53.100;11.098;2022-10-31T15:38:46;13.30;99.90
12287;DHT22;6206;53.100;11.098;2022-10-31T15:41:28;13.50;99.90
12287;DHT22;6206;53.100;11.098;2022-10-31T15:43:58;13.10;99.90
12287;DHT22;6206;53.100;11.098;2022-10-31T15:46:26;13.30;99.90
12287;DHT22;6206;53.100;11.098;2022-10-31T15:48:53;13.10;99.90
12287;DHT22;6206;53.100;11.098;2022-10-31T15:51:26;12.90;99.90
12287;DHT22;6206;53.100;11.098;2022-10-31T15:53:55;15.10;99.90
12287;DHT22;6206;53.100;11.098;2022-10-31T15:56:24;15.60;99.90